Time;durP1;ratioP1;P1;durP2;ratioP2;P2;SDS_P1;SDS_P2;PMS_P1;PMS_P2;Temp;Humidity;BMP_temperature;BMP_pressure;BME280_temperature;BME280_humidity;BME280_pressure;Samples;Min_cycle;Max_cycle;Signal;HPM_P1;HPM_P2
2022/05/20 00:00:54;;;;;;;12.48;5.03;;;;;;;;;;5072848;28;20056;-80
2022/05/20 00:03:19;;;;;;;9.55;4.25;;;;;;;;;;5085616;28;20132;-81
2022/05/20 00:05:45;;;;;;;9.80;4.25;;;;;;;;;;5093096;28;20035;-81
2022/05/20 00:08:11;;;;;;;6.30;4.50;;;;;;;;;;5059436;28;20032;-81
2022/05/20 00:10:36;;;;;;;6.38;4.28;;;;;;;;;;5040871;28;20025;-80
2022/05/20 00:13:02;;;;;;;10.82;4.43;;;;;;;;;;5082579;28;20028;-81
2022/05/20 00:15:28;;;;;;;7.60;4.72;;;;;;;;;;5059363;28;20109;-81
2022/05/20 00:17:54;;;;;;;12.90;4.57;;;;;;;;;;5076132;28;20038;-80
2022/05/20 00:20:21;;;;;;;7.65;4.43;;;;;;;;;;5091014;28;20502;-80
2022/05/20 00:22:46;;;;;;;9.43;4.78;;;;;;;;;;5072438;28;20032;-82
2022/05/20 00:27:58;;;;;;;7.18;3.92;;;;;;;;;;5092405;28;20409;-82
2022/05/20 00:30:24;;;;;;;9.00;4.53;;;;;;;;;;5077397;28;20107;-81
2022/05/20 00:32:50;;;;;;;5.75;3.75;;;;;;;;;;5087074;28;20021;-81
2022/05/20 00:35:16;;;;;;;7.80;3.78;;;;;;;;;;5086001;28;20123;-83
2022/05/20 00:37:42;;;;;;;6.95;3.28;;;;;;;;;;5079948;28;20507;-81
2022/05/20 00:40:08;;;;;;;4.88;3.30;;;;;;;;;;5073015;28;20028;-82
2022/05/20 00:42:34;;;;;;;10.25;3.70;;;;;;;;;;5078854;28;20020;-82
2022/05/20 00:44:59;;;;;;;9.00;3.58;;;;;;;;;;5084916;28;20502;-80
2022/05/20 00:47:25;;;;;;;6.68;3.15;;;;;;;;;;5060854;28;20024;-81
2022/05/20 00:49:53;;;;;;;5.82;3.42;;;;;;;;;;5077806;28;20032;-80
2022/05/20 00:52:21;;;;;;;6.43;3.38;;;;;;;;;;5090152;28;20034;-81
2022/05/20 00:54:47;;;;;;;5.88;3.10;;;;;;;;;;5061661;28;20427;-81
2022/05/20 00:57:43;;;;;;;5.30;2.95;;;;;;;;;;5084295;28;20503;-81
2022/05/20 01:00:19;;;;;;;9.48;3.35;;;;;;;;;;5073388;28;20093;-80
2022/05/20 01:02:46;;;;;;;5.85;2.97;;;;;;;;;;5061765;28;20364;-80
2022/05/20 01:05:17;;;;;;;5.53;3.00;;;;;;;;;;5075854;28;20032;-79
2022/05/20 01:07:43;;;;;;;9.45;3.38;;;;;;;;;;5093831;28;20483;-81
2022/05/20 01:10:09;;;;;;;7.70;2.92;;;;;;;;;;5116794;22;20061;-76
2022/05/20 01:12:35;;;;;;;5.90;3.78;;;;;;;;;;5072934;28;20118;-76
2022/05/20 01:15:02;;;;;;;6.25;3.20;;;;;;;;;;5075207;28;20559;-76
2022/05/20 01:17:28;;;;;;;5.63;3.20;;;;;;;;;;5105679;28;20027;-75
2022/05/20 01:19:54;;;;;;;6.50;2.92;;;;;;;;;;5112992;28;20027;-76
2022/05/20 01:22:37;;;;;;;7.38;3.10;;;;;;;;;;5077067;28;20034;-76
2022/05/20 01:25:03;;;;;;;7.22;3.20;;;;;;;;;;5103895;28;20028;-76
2022/05/20 01:27:28;;;;;;;7.10;3.35;;;;;;;;;;5105238;28;20020;-77
2022/05/20 01:29:54;;;;;;;8.75;3.10;;;;;;;;;;5078153;28;20043;-77
2022/05/20 01:32:19;;;;;;;4.25;3.08;;;;;;;;;;5077946;28;20486;-75
2022/05/20 01:34:45;;;;;;;9.23;3.15;;;;;;;;;;5087600;28;20497;-75
2022/05/20 01:37:11;;;;;;;8.43;3.10;;;;;;;;;;5084884;28;20034;-75
2022/05/20 01:39:37;;;;;;;10.63;3.33;;;;;;;;;;5085042;28;20039;-76
2022/05/20 01:42:09;;;;;;;6.38;3.75;;;;;;;;;;5109290;28;20024;-76
2022/05/20 01:44:37;;;;;;;7.47;3.05;;;;;;;;;;5078874;28;20398;-75
2022/05/20 01:47:13;;;;;;;9.43;3.35;;;;;;;;;;5103504;28;20020;-76
2022/05/20 01:49:41;;;;;;;7.65;3.33;;;;;;;;;;5088076;28;20027;-76
2022/05/20 01:52:17;;;;;;;6.18;2.55;;;;;;;;;;5077626;28;20158;-75
2022/05/20 01:54:51;;;;;;;5.68;2.85;;;;;;;;;;5087670;28;20039;-76
2022/05/20 01:57:20;;;;;;;6.88;3.30;;;;;;;;;;5068252;28;20024;-76
2022/05/20 01:59:49;;;;;;;6.60;3.00;;;;;;;;;;5097053;28;20024;-74
2022/05/20 02:02:17;;;;;;;8.15;3.03;;;;;;;;;;5091377;28;20027;-77
2022/05/20 02:04:51;;;;;;;6.97;2.60;;;;;;;;;;5097821;28;20043;-75
2022/05/20 02:07:20;;;;;;;6.45;3.05;;;;;;;;;;5101391;28;20482;-76
2022/05/20 02:09:58;;;;;;;7.03;2.88;;;;;;;;;;5106980;28;20028;-75
2022/05/20 02:12:25;;;;;;;7.07;3.22;;;;;;;;;;5095949;28;20027;-73
2022/05/20 02:15:02;;;;;;;13.15;2.80;;;;;;;;;;5111498;28;20069;-76
2022/05/20 02:17:31;;;;;;;8.05;3.00;;;;;;;;;;5081604;28;20028;-76
2022/05/20 02:19:56;;;;;;;;;;;;;;;;;;5073966;28;20057;-76
2022/05/20 02:22:23;;;;;;;4.50;2.70;;;;;;;;;;5090587;28;19908;-75
2022/05/20 02:24:49;;;;;;;7.80;3.35;;;;;;;;;;5098727;28;20028;-76
2022/05/20 02:27:22;;;;;;;11.30;3.65;;;;;;;;;;5101384;28;20103;-75
2022/05/20 02:29:55;;;;;;;6.50;3.17;;;;;;;;;;5107244;28;20070;-76
2022/05/20 02:32:21;;;;;;;7.75;3.03;;;;;;;;;;5095462;28;20016;-76
2022/05/20 02:34:46;;;;;;;7.78;3.20;;;;;;;;;;5086388;28;20074;-74
2022/05/20 02:37:17;;;;;;;4.78;2.88;;;;;;;;;;5102048;28;20479;-76
2022/05/20 02:39:42;;;;;;;8.02;2.80;;;;;;;;;;5097177;28;20151;-79
2022/05/20 02:42:08;;;;;;;6.70;2.55;;;;;;;;;;5108437;28;20531;-77
2022/05/20 02:44:33;;;;;;;5.57;2.85;;;;;;;;;;5078359;28;20027;-77
2022/05/20 02:46:59;;;;;;;5.88;2.92;;;;;;;;;;5103242;28;20051;-75
2022/05/20 02:49:24;;;;;;;9.60;3.22;;;;;;;;;;5052027;28;20080;-75
2022/05/20 02:51:49;;;;;;;4.47;2.88;;;;;;;;;;5096422;28;20032;-74
2022/05/20 02:54:15;;;;;;;7.18;2.65;;;;;;;;;;5110326;28;20031;-74
2022/05/20 02:56:40;;;;;;;8.77;3.20;;;;;;;;;;5106232;28;20479;-75
2022/05/20 03:04:34;;;;;;;11.82;3.35;;;;;;;;;;5078257;28;20505;-76
2022/05/20 03:06:59;;;;;;;4.85;2.80;;;;;;;;;;5103916;28;20024;-76
2022/05/20 03:09:25;;;;;;;5.30;2.83;;;;;;;;;;5103603;28;20044;-76
2022/05/20 03:11:51;;;;;;;8.27;3.25;;;;;;;;;;5077735;28;20510;-75
2022/05/20 03:14:18;;;;;;;9.02;4.00;;;;;;;;;;5110005;28;20452;-77
2022/05/20 03:16:43;;;;;;;6.28;3.00;;;;;;;;;;5087376;28;20027;-76
2022/05/20 03:19:10;;;;;;;10.45;3.25;;;;;;;;;;5083380;28;20040;-76
2022/05/20 03:21:37;;;;;;;6.78;3.03;;;;;;;;;;5079439;28;20032;-76
2022/05/20 03:24:04;;;;;;;6.25;2.80;;;;;;;;;;5089520;28;20035;-76
2022/05/20 03:26:29;;;;;;;9.10;3.03;;;;;;;;;;5078117;28;20022;-76
2022/05/20 03:28:59;;;;;;;9.02;3.17;;;;;;;;;;5085537;28;20111;-76
2022/05/20 03:31:28;;;;;;;6.53;3.17;;;;;;;;;;5103533;28;20032;-76
2022/05/20 03:33:53;;;;;;;6.18;3.20;;;;;;;;;;5095287;28;20055;-75
2022/05/20 03:36:19;;;;;;;5.88;3.28;;;;;;;;;;5108143;28;20063;-75
2022/05/20 03:38:45;;;;;;;6.85;3.03;;;;;;;;;;5079748;28;20035;-75
2022/05/20 03:41:10;;;;;;;8.18;3.28;;;;;;;;;;5101424;28;20028;-76
2022/05/20 03:43:36;;;;;;;6.40;3.08;;;;;;;;;;5104757;28;20034;-75
2022/05/20 03:46:01;;;;;;;7.32;3.97;;;;;;;;;;5095328;28;20024;-76
2022/05/20 03:48:27;;;;;;;6.13;3.13;;;;;;;;;;5111194;28;20035;-76
2022/05/20 03:50:53;;;;;;;13.80;2.92;;;;;;;;;;5102315;28;20032;-73
2022/05/20 03:53:18;;;;;;;6.80;3.22;;;;;;;;;;5103332;28;20043;-75
2022/05/20 03:55:44;;;;;;;5.63;2.92;;;;;;;;;;5091306;28;20023;-74
2022/05/20 03:58:10;;;;;;;9.43;3.83;;;;;;;;;;5096382;28;20039;-74
2022/05/20 04:03:19;;;;;;;7.40;3.63;;;;;;;;;;5103268;28;20027;-74
2022/05/20 04:05:45;;;;;;;10.02;3.30;;;;;;;;;;5076765;28;20399;-76
2022/05/20 04:08:10;;;;;;;7.70;3.70;;;;;;;;;;5107559;28;20016;-76
2022/05/20 04:10:36;;;;;;;8.15;3.55;;;;;;;;;;5110771;28;20078;-75
2022/05/20 04:13:02;;;;;;;13.18;3.58;;;;;;;;;;5083326;28;20023;-76
2022/05/20 04:15:27;;;;;;;6.15;3.50;;;;;;;;;;5094025;28;20034;-76
2022/05/20 04:17:52;;;;;;;7.63;4.30;;;;;;;;;;5081848;28;20039;-76
2022/05/20 04:20:18;;;;;;;6.70;3.88;;;;;;;;;;5093923;28;20422;-76
2022/05/20 04:22:45;;;;;;;8.07;3.88;;;;;;;;;;5098575;28;20023;-75
2022/05/20 04:25:11;;;;;;;13.38;4.20;;;;;;;;;;5105807;28;20039;-76
2022/05/20 04:27:37;;;;;;;7.50;3.45;;;;;;;;;;5106455;28;20031;-76
2022/05/20 04:30:04;;;;;;;11.10;4.00;;;;;;;;;;5098035;28;20526;-76
2022/05/20 04:32:29;;;;;;;6.65;3.90;;;;;;;;;;5092304;28;20036;-76
2022/05/20 04:34:55;;;;;;;7.22;3.80;;;;;;;;;;5075664;28;20471;-76
2022/05/20 04:37:23;;;;;;;7.30;3.72;;;;;;;;;;5085477;28;20032;-76
2022/05/20 04:39:49;;;;;;;7.45;3.53;;;;;;;;;;5099806;28;20020;-76
2022/05/20 04:47:42;;;;;;;11.10;4.30;;;;;;;;;;5107171;28;20028;-73
2022/05/20 04:50:08;;;;;;;9.32;4.03;;;;;;;;;;5079869;28;20475;-75
2022/05/20 04:52:33;;;;;;;5.20;3.75;;;;;;;;;;5110851;28;20456;-75
2022/05/20 04:54:59;;;;;;;6.68;3.60;;;;;;;;;;5081844;28;20039;-75
2022/05/20 04:57:27;;;;;;;8.20;3.70;;;;;;;;;;5102666;28;20047;-74
2022/05/20 04:59:58;;;;;;;6.25;3.90;;;;;;;;;;5107238;28;20479;-75
2022/05/20 05:02:23;;;;;;;6.15;3.42;;;;;;;;;;5078020;28;20024;-75
2022/05/20 05:04:49;;;;;;;14.40;3.80;;;;;;;;;;5107977;28;20051;-75
2022/05/20 05:07:14;;;;;;;9.02;3.53;;;;;;;;;;5101980;28;20119;-75
2022/05/20 05:09:40;;;;;;;6.88;3.40;;;;;;;;;;5082024;28;20028;-75
2022/05/20 05:12:07;;;;;;;6.95;4.43;;;;;;;;;;5108745;28;20024;-75
2022/05/20 05:14:40;;;;;;;11.50;3.92;;;;;;;;;;5079745;28;20284;-75
2022/05/20 05:17:06;;;;;;;8.77;4.13;;;;;;;;;;5086672;28;20111;-75
2022/05/20 05:19:34;;;;;;;6.68;3.80;;;;;;;;;;5105801;28;20078;-76
2022/05/20 05:22:00;;;;;;;13.80;4.30;;;;;;;;;;5098280;28;20115;-76
2022/05/20 05:24:25;;;;;;;13.05;4.57;;;;;;;;;;5109733;28;20296;-76
2022/05/20 05:26:50;;;;;;;7.10;4.40;;;;;;;;;;5098142;28;20416;-76
2022/05/20 05:29:16;;;;;;;8.65;4.20;;;;;;;;;;5094601;28;20436;-76
2022/05/20 05:31:41;;;;;;;13.15;4.65;;;;;;;;;;5100317;28;20491;-75
2022/05/20 05:34:10;;;;;;;10.75;4.05;;;;;;;;;;5090831;28;20070;-74
2022/05/20 05:36:35;;;;;;;10.35;4.68;;;;;;;;;;5109041;28;20089;-75
2022/05/20 05:39:01;;;;;;;8.68;4.30;;;;;;;;;;5081105;28;20470;-75
2022/05/20 05:41:30;;;;;;;9.10;4.88;;;;;;;;;;5083783;28;20028;-75
2022/05/20 05:43:56;;;;;;;8.30;4.85;;;;;;;;;;5106784;28;20133;-75
2022/05/20 05:46:21;;;;;;;11.98;4.38;;;;;;;;;;5095802;28;20502;-76
2022/05/20 05:48:47;;;;;;;10.60;4.65;;;;;;;;;;5090456;28;20042;-75
2022/05/20 05:51:12;;;;;;;8.70;5.18;;;;;;;;;;5101113;28;20084;-75
2022/05/20 05:53:38;;;;;;;16.05;5.07;;;;;;;;;;5100483;28;20039;-75
2022/05/20 05:56:05;;;;;;;9.75;5.40;;;;;;;;;;5107889;28;20035;-74
2022/05/20 05:58:31;;;;;;;9.65;4.95;;;;;;;;;;5077149;28;20486;-75
2022/05/20 06:00:57;;;;;;;10.80;4.68;;;;;;;;;;5105831;28;20035;-75
2022/05/20 06:03:23;;;;;;;10.65;4.47;;;;;;;;;;5084459;28;20085;-76
2022/05/20 06:05:48;;;;;;;8.63;5.00;;;;;;;;;;5081141;28;20032;-75
2022/05/20 06:08:14;;;;;;;10.38;5.13;;;;;;;;;;5109519;28;20053;-75
2022/05/20 06:10:40;;;;;;;11.48;5.53;;;;;;;;;;5073625;28;20035;-75
2022/05/20 06:13:06;;;;;;;10.80;5.25;;;;;;;;;;5065751;28;20027;-75
2022/05/20 06:15:31;;;;;;;11.23;4.72;;;;;;;;;;5110375;28;20028;-76
2022/05/20 06:17:57;;;;;;;9.85;5.28;;;;;;;;;;5079131;28;20063;-75
2022/05/20 06:20:23;;;;;;;10.90;6.07;;;;;;;;;;5090169;28;20290;-75
2022/05/20 06:22:50;;;;;;;9.07;5.45;;;;;;;;;;5079013;28;20080;-74
2022/05/20 06:25:16;;;;;;;9.88;5.18;;;;;;;;;;5084070;28;20553;-75
2022/05/20 06:27:42;;;;;;;15.50;6.30;;;;;;;;;;5104319;28;20055;-74
2022/05/20 06:30:11;;;;;;;9.07;5.35;;;;;;;;;;5094996;28;20059;-76
2022/05/20 06:32:37;;;;;;;9.55;5.38;;;;;;;;;;5095128;28;20043;-74
2022/05/20 06:40:40;;;;;;;10.40;5.90;;;;;;;;;;5095508;28;20474;-74
2022/05/20 06:43:06;;;;;;;12.75;6.03;;;;;;;;;;5086022;28;20044;-75
2022/05/20 06:45:31;;;;;;;9.55;5.43;;;;;;;;;;5068330;28;20084;-75
2022/05/20 06:47:58;;;;;;;10.45;5.63;;;;;;;;;;5078590;28;20056;-75
2022/05/20 06:50:24;;;;;;;12.15;5.80;;;;;;;;;;5108072;28;20036;-75
2022/05/20 06:52:49;;;;;;;10.57;5.38;;;;;;;;;;5078411;28;20077;-74
2022/05/20 06:55:15;;;;;;;9.35;5.25;;;;;;;;;;5102301;28;20119;-75
2022/05/20 06:57:40;;;;;;;12.40;5.85;;;;;;;;;;5085890;28;20027;-75
2022/05/20 07:00:08;;;;;;;10.48;5.10;;;;;;;;;;5095462;28;20399;-75
2022/05/20 07:02:33;;;;;;;12.10;4.95;;;;;;;;;;5109060;28;20031;-75
2022/05/20 07:05:03;;;;;;;12.05;5.07;;;;;;;;;;5079983;28;20031;-75
2022/05/20 07:07:29;;;;;;;9.20;5.13;;;;;;;;;;5100591;28;20484;-76
2022/05/20 07:09:54;;;;;;;7.65;5.10;;;;;;;;;;5105969;28;20043;-75
2022/05/20 07:12:20;;;;;;;11.32;5.82;;;;;;;;;;5120877;22;20522;-80
2022/05/20 07:14:45;;;;;;;9.93;5.57;;;;;;;;;;5091996;28;20025;-78
2022/05/20 07:17:14;;;;;;;8.98;5.47;;;;;;;;;;5085639;28;20093;-81
2022/05/20 07:19:40;;;;;;;9.65;5.18;;;;;;;;;;5071496;28;20027;-81
2022/05/20 07:22:05;;;;;;;11.13;5.20;;;;;;;;;;5099308;28;20429;-79
2022/05/20 07:24:31;;;;;;;13.35;5.70;;;;;;;;;;5062881;28;20019;-81
2022/05/20 07:26:56;;;;;;;8.90;5.60;;;;;;;;;;5108603;28;20032;-81
2022/05/20 07:29:22;;;;;;;11.35;5.57;;;;;;;;;;5104628;28;20039;-81
2022/05/20 07:31:48;;;;;;;9.82;5.22;;;;;;;;;;5083372;28;20032;-79
2022/05/20 07:34:13;;;;;;;11.43;5.10;;;;;;;;;;5075445;28;20462;-80
2022/05/20 07:36:39;;;;;;;13.95;5.28;;;;;;;;;;5080810;28;20038;-80
2022/05/20 07:39:04;;;;;;;14.65;4.95;;;;;;;;;;5089017;28;20032;-79
2022/05/20 07:41:32;;;;;;;7.78;4.40;;;;;;;;;;5105775;28;20486;-80
2022/05/20 07:43:57;;;;;;;9.02;5.00;;;;;;;;;;5076566;28;20024;-81
2022/05/20 07:46:23;;;;;;;9.32;5.45;;;;;;;;;;5076813;28;20153;-79
2022/05/20 07:48:48;;;;;;;7.75;4.85;;;;;;;;;;5109562;28;20376;-80
2022/05/20 07:51:15;;;;;;;10.38;6.03;;;;;;;;;;5068467;28;20127;-79
2022/05/20 07:53:44;;;;;;;12.38;5.88;;;;;;;;;;5085285;28;20560;-78
2022/05/20 07:56:10;;;;;;;;;;;;;;;;;;5093437;28;20046;-80
2022/05/20 07:58:38;;;;;;;10.23;5.35;;;;;;;;;;5075808;28;19944;-78
2022/05/20 08:01:03;;;;;;;9.57;5.78;;;;;;;;;;5084058;28;20032;-78
2022/05/20 08:06:16;;;;;;;7.70;5.60;;;;;;;;;;5093898;28;20059;-77
2022/05/20 08:08:41;;;;;;;14.23;5.68;;;;;;;;;;5080926;28;20074;-78
2022/05/20 08:11:07;;;;;;;11.30;5.25;;;;;;;;;;5089266;28;20063;-78
2022/05/20 08:13:32;;;;;;;9.38;6.00;;;;;;;;;;5106070;28;20409;-78
2022/05/20 08:15:58;;;;;;;11.60;5.72;;;;;;;;;;5094551;28;20034;-79
2022/05/20 08:18:23;;;;;;;11.35;6.72;;;;;;;;;;5080726;28;20097;-79
2022/05/20 08:20:49;;;;;;;10.38;5.97;;;;;;;;;;5113264;28;20062;-78
2022/05/20 08:23:14;;;;;;;16.02;6.53;;;;;;;;;;5084545;28;20539;-79
2022/05/20 08:25:40;;;;;;;10.20;5.68;;;;;;;;;;5066470;28;20492;-79
2022/05/20 08:28:05;;;;;;;10.88;6.45;;;;;;;;;;5110164;28;20122;-78
2022/05/20 08:30:31;;;;;;;11.05;6.43;;;;;;;;;;5078867;28;20463;-78
2022/05/20 08:32:56;;;;;;;10.75;7.07;;;;;;;;;;5088488;28;20077;-77
2022/05/20 08:35:23;;;;;;;13.30;6.13;;;;;;;;;;5068745;28;20032;-78
2022/05/20 08:37:49;;;;;;;30.17;14.40;;;;;;;;;;5100190;28;20132;-77
2022/05/20 08:40:20;;;;;;;10.52;6.30;;;;;;;;;;5075469;28;20491;-78
2022/05/20 08:42:46;;;;;;;11.52;6.55;;;;;;;;;;5080035;28;20046;-77
2022/05/20 08:45:13;;;;;;;12.85;6.68;;;;;;;;;;5086760;28;20028;-78
2022/05/20 08:47:44;;;;;;;16.23;7.03;;;;;;;;;;5070481;28;20031;-77
2022/05/20 08:50:13;;;;;;;10.50;6.32;;;;;;;;;;5057858;28;20032;-77
2022/05/20 08:52:39;;;;;;;7.57;6.43;;;;;;;;;;5074782;28;20132;-77
2022/05/20 08:55:05;;;;;;;12.68;8.27;;;;;;;;;;5079081;28;20162;-79
2022/05/20 08:57:33;;;;;;;9.75;7.22;;;;;;;;;;5104427;28;20534;-78
2022/05/20 09:00:00;;;;;;;10.95;8.95;;;;;;;;;;5098063;28;20024;-77
2022/05/20 09:02:25;;;;;;;11.73;8.18;;;;;;;;;;5109881;28;20030;-78
2022/05/20 09:04:51;;;;;;;13.32;8.00;;;;;;;;;;5098928;28;20478;-79
2022/05/20 09:07:18;;;;;;;15.88;8.98;;;;;;;;;;5069135;28;20478;-78
2022/05/20 09:09:50;;;;;;;13.20;8.50;;;;;;;;;;5106573;28;20096;-80
2022/05/20 09:12:42;;;;;;;12.60;9.40;;;;;;;;;;5096238;28;20028;-80
2022/05/20 09:18:02;;;;;;;17.77;11.20;;;;;;;;;;5097848;28;20028;-77
2022/05/20 09:20:28;;;;;;;16.83;10.73;;;;;;;;;;5091484;28;20023;-79
2022/05/20 09:23:05;;;;;;;18.00;12.20;;;;;;;;;;5080361;28;20023;-79
2022/05/20 09:25:32;;;;;;;17.42;12.48;;;;;;;;;;5083325;28;20463;-79
2022/05/20 09:28:16;;;;;;;15.90;11.32;;;;;;;;;;5072958;28;20023;-78
2022/05/20 09:30:45;;;;;;;16.30;11.77;;;;;;;;;;5078706;28;20027;-78
2022/05/20 09:33:14;;;;;;;15.00;11.07;;;;;;;;;;5085566;28;20134;-79
2022/05/20 09:35:39;;;;;;;17.17;12.63;;;;;;;;;;5070477;28;20027;-79
2022/05/20 09:38:09;;;;;;;14.60;12.32;;;;;;;;;;5096163;28;20028;-79
2022/05/20 09:40:37;;;;;;;14.70;11.63;;;;;;;;;;5094001;28;20031;-79
2022/05/20 09:43:08;;;;;;;16.85;13.05;;;;;;;;;;5104365;28;20043;-79
2022/05/20 09:45:42;;;;;;;15.45;11.85;;;;;;;;;;5103991;28;20024;-79
2022/05/20 09:48:07;;;;;;;16.40;12.55;;;;;;;;;;5057564;28;20028;-78
2022/05/20 09:50:34;;;;;;;17.90;12.00;;;;;;;;;;5108645;28;20027;-80
2022/05/20 09:53:00;;;;;;;21.88;11.88;;;;;;;;;;5098788;28;20043;-79
2022/05/20 09:55:29;;;;;;;16.58;11.13;;;;;;;;;;5101922;28;20028;-79
2022/05/20 09:57:55;;;;;;;13.30;9.48;;;;;;;;;;5088304;28;20031;-78
2022/05/20 10:00:26;;;;;;;13.77;10.20;;;;;;;;;;5075218;28;20483;-78
2022/05/20 10:03:04;;;;;;;15.38;9.15;;;;;;;;;;5087869;28;20101;-79
2022/05/20 10:05:37;;;;;;;12.30;9.65;;;;;;;;;;5068479;28;20035;-79
2022/05/20 10:08:10;;;;;;;11.07;8.32;;;;;;;;;;5096268;28;20059;-78
2022/05/20 10:10:45;;;;;;;15.30;10.73;;;;;;;;;;5073534;28;20062;-80
2022/05/20 10:13:20;;;;;;;15.77;10.48;;;;;;;;;;5081953;28;20043;-79
2022/05/20 10:15:47;;;;;;;11.80;8.13;;;;;;;;;;5091705;28;20031;-78
2022/05/20 10:18:28;;;;;;;11.80;7.93;;;;;;;;;;5094839;28;20497;-79
2022/05/20 10:20:58;;;;;;;8.43;6.82;;;;;;;;;;5076395;28;20051;-79
2022/05/20 10:23:36;;;;;;;10.10;6.80;;;;;;;;;;5100827;28;20506;-78
2022/05/20 10:26:31;;;;;;;12.77;8.93;;;;;;;;;;5088842;28;20032;-79
2022/05/20 10:34:31;;;;;;;12.88;7.75;;;;;;;;;;5108237;28;20031;-80
2022/05/20 10:37:11;;;;;;;12.27;7.15;;;;;;;;;;5079826;28;20023;-78
2022/05/20 10:39:40;;;;;;;13.45;7.47;;;;;;;;;;5099722;28;20044;-78
2022/05/20 10:42:14;;;;;;;10.93;7.75;;;;;;;;;;5089791;28;20061;-78
2022/05/20 10:50:33;;;;;;;7.80;6.07;;;;;;;;;;5108110;28;20055;-79
2022/05/20 10:52:58;;;;;;;14.57;6.57;;;;;;;;;;5097929;28;20024;-78
2022/05/20 10:55:43;;;;;;;11.82;7.05;;;;;;;;;;5084941;28;20555;-79
2022/05/20 10:58:15;;;;;;;10.68;6.57;;;;;;;;;;5094157;28;20031;-79
2022/05/20 11:00:47;;;;;;;11.07;6.78;;;;;;;;;;5081656;28;20050;-79
2022/05/20 11:03:31;;;;;;;10.32;6.35;;;;;;;;;;5106639;28;20031;-79
2022/05/20 11:06:07;;;;;;;8.70;5.80;;;;;;;;;;5110383;28;20027;-78
2022/05/20 11:08:32;;;;;;;7.80;5.90;;;;;;;;;;5080888;28;20077;-79
2022/05/20 11:11:28;;;;;;;10.50;5.68;;;;;;;;;;5090603;28;20036;-77
2022/05/20 11:13:58;;;;;;;14.70;7.68;;;;;;;;;;5074747;28;20051;-78
2022/05/20 11:16:23;;;;;;;10.75;9.07;;;;;;;;;;5093351;28;20028;-78
2022/05/20 11:19:06;;;;;;;10.25;7.28;;;;;;;;;;5081927;28;20034;-79
2022/05/20 11:21:51;;;;;;;9.85;7.30;;;;;;;;;;5085266;28;20032;-80
2022/05/20 11:24:36;;;;;;;8.57;5.95;;;;;;;;;;5111332;28;20027;-78
2022/05/20 11:27:17;;;;;;;9.35;6.68;;;;;;;;;;5101983;28;20027;-78
2022/05/20 11:29:42;;;;;;;13.25;8.40;;;;;;;;;;5101975;28;20035;-78
2022/05/20 11:32:10;;;;;;;8.35;6.50;;;;;;;;;;5111183;28;20034;-78
2022/05/20 11:34:50;;;;;;;8.35;4.88;;;;;;;;;;5076639;28;20055;-78
2022/05/20 11:37:31;;;;;;;8.02;5.50;;;;;;;;;;5085642;28;20111;-78
2022/05/20 11:40:15;;;;;;;9.35;6.15;;;;;;;;;;5099205;28;20032;-79
2022/05/20 11:42:53;;;;;;;9.60;7.45;;;;;;;;;;5080121;28;20481;-78
2022/05/20 11:45:45;;;;;;;8.27;5.00;;;;;;;;;;5096387;28;20031;-78
2022/05/20 11:48:20;;;;;;;9.25;5.57;;;;;;;;;;5097557;28;20024;-78
2022/05/20 11:50:48;;;;;;;7.22;5.07;;;;;;;;;;5108984;28;20035;-79
2022/05/20 11:53:30;;;;;;;7.95;4.47;;;;;;;;;;5102920;28;20024;-78
2022/05/20 11:56:00;;;;;;;7.88;4.72;;;;;;;;;;5081428;28;20165;-78
2022/05/20 11:58:39;;;;;;;6.30;4.47;;;;;;;;;;5092637;28;20525;-79
2022/05/20 12:01:05;;;;;;;8.13;3.90;;;;;;;;;;5101332;28;20031;-79
2022/05/20 12:04:06;;;;;;;8.95;4.97;;;;;;;;;;5102793;28;20038;-79
2022/05/20 12:06:20;;;;;;;7.68;4.65;;;;;;;;;;5110011;28;20036;-79
2022/05/20 12:08:50;;;;;;;8.95;5.43;;;;;;;;;;5098671;28;20026;-79
2022/05/20 12:11:23;;;;;;;6.97;5.00;;;;;;;;;;5105279;28;20036;-79
2022/05/20 12:13:58;;;;;;;6.63;4.78;;;;;;;;;;5107510;28;20069;-79
2022/05/20 12:16:27;;;;;;;10.52;4.80;;;;;;;;;;5110610;28;20040;-79
2022/05/20 12:24:31;;;;;;;8.15;4.82;;;;;;;;;;5092009;28;20502;-79
2022/05/20 12:26:56;;;;;;;;;;;;;;;;;;5066104;28;20471;-79
2022/05/20 12:29:43;;;;;;;9.68;4.32;;;;;;;;;;5085968;28;19954;-80
2022/05/20 12:32:15;;;;;;;6.53;4.32;;;;;;;;;;5110642;28;20027;-80
2022/05/20 12:34:41;;;;;;;7.18;4.03;;;;;;;;;;5097862;28;20051;-78
2022/05/20 12:37:07;;;;;;;7.70;4.72;;;;;;;;;;5075653;28;20028;-80
2022/05/20 12:39:46;;;;;;;9.60;4.93;;;;;;;;;;5104944;28;20038;-80
2022/05/20 12:42:23;;;;;;;7.43;3.90;;;;;;;;;;5078870;28;20063;-78
2022/05/20 12:44:49;;;;;;;6.25;3.65;;;;;;;;;;5090353;28;20028;-80
2022/05/20 12:47:28;;;;;;;9.32;3.38;;;;;;;;;;5102956;28;20084;-80
2022/05/20 12:49:59;;;;;;;4.25;3.30;;;;;;;;;;5059460;28;20028;-79
2022/05/20 12:52:27;;;;;;;8.55;4.07;;;;;;;;;;5112370;28;20019;-78
2022/05/20 12:54:56;;;;;;;5.00;3.30;;;;;;;;;;5103898;28;20020;-80
2022/05/20 12:57:25;;;;;;;10.77;3.72;;;;;;;;;;5113922;28;20055;-79
2022/05/20 13:00:03;;;;;;;4.00;3.00;;;;;;;;;;5100156;28;20035;-80
2022/05/20 13:02:32;;;;;;;7.35;2.95;;;;;;;;;;5106123;28;20078;-81
2022/05/20 13:05:04;;;;;;;5.93;3.25;;;;;;;;;;5081996;28;20050;-80
2022/05/20 13:07:31;;;;;;;7.25;3.70;;;;;;;;;;5114036;28;20027;-80
2022/05/20 13:09:57;;;;;;;4.85;3.03;;;;;;;;;;5099725;28;20032;-79
2022/05/20 13:12:22;;;;;;;6.35;3.20;;;;;;;;;;5102034;22;20024;-76
2022/05/20 13:14:58;;;;;;;4.15;2.85;;;;;;;;;;5072242;28;20036;-75
2022/05/20 13:17:23;;;;;;;9.73;4.07;;;;;;;;;;5063961;28;20036;-75
2022/05/20 13:19:51;;;;;;;5.15;3.78;;;;;;;;;;5067755;28;20028;-76
2022/05/20 13:22:21;;;;;;;7.13;3.60;;;;;;;;;;5056975;28;20063;-75
2022/05/20 13:24:53;;;;;;;6.03;3.60;;;;;;;;;;5086349;28;20079;-75
2022/05/20 13:27:21;;;;;;;5.32;3.25;;;;;;;;;;5063303;28;20454;-77
2022/05/20 13:29:47;;;;;;;4.88;3.30;;;;;;;;;;5078331;28;20032;-75
2022/05/20 13:32:28;;;;;;;9.32;3.90;;;;;;;;;;5070748;28;20034;-76
2022/05/20 13:34:54;;;;;;;7.63;3.58;;;;;;;;;;5060196;28;20058;-76
2022/05/20 13:37:24;;;;;;;11.48;3.10;;;;;;;;;;5064183;28;20044;-78
2022/05/20 13:39:54;;;;;;;5.35;2.85;;;;;;;;;;5085662;28;20054;-75
2022/05/20 13:42:21;;;;;;;9.60;3.08;;;;;;;;;;5074975;28;20112;-77
2022/05/20 13:44:46;;;;;;;7.50;3.38;;;;;;;;;;5068527;28;20038;-77
2022/05/20 13:49:59;;;;;;;5.68;2.80;;;;;;;;;;5076660;28;20051;-76
2022/05/20 13:52:25;;;;;;;8.27;3.63;;;;;;;;;;5088175;28;20467;-76
2022/05/20 13:54:51;;;;;;;5.28;3.05;;;;;;;;;;5059089;28;20028;-76
2022/05/20 13:57:29;;;;;;;4.03;2.95;;;;;;;;;;5082435;28;20483;-76
2022/05/20 13:59:57;;;;;;;;;;;;;;;;;;5086458;28;20028;-76
2022/05/20 14:02:33;;;;;;;4.28;3.00;;;;;;;;;;5056389;28;19912;-77
2022/05/20 14:04:58;;;;;;;6.93;4.43;;;;;;;;;;5084954;28;20135;-76
2022/05/20 14:07:27;;;;;;;6.43;3.63;;;;;;;;;;5081994;28;20524;-77
2022/05/20 14:09:54;;;;;;;4.40;3.10;;;;;;;;;;5060032;28;20476;-75
2022/05/20 14:12:22;;;;;;;8.18;2.63;;;;;;;;;;5069903;28;20127;-77
2022/05/20 14:14:54;;;;;;;4.47;2.90;;;;;;;;;;5076504;28;20491;-77
2022/05/20 14:17:19;;;;;;;6.20;2.65;;;;;;;;;;5063919;28;20028;-75
2022/05/20 14:19:48;;;;;;;5.28;3.30;;;;;;;;;;5067108;28;20043;-76
2022/05/20 14:22:18;;;;;;;8.68;3.50;;;;;;;;;;5056586;28;20103;-76
2022/05/20 14:25:02;;;;;;;4.88;2.95;;;;;;;;;;5068694;28;20360;-77
2022/05/20 14:27:38;;;;;;;4.38;2.33;;;;;;;;;;5081813;28;20472;-77
2022/05/20 14:30:33;;;;;;;4.57;2.70;;;;;;;;;;5074973;28;20029;-76
2022/05/20 14:33:00;;;;;;;4.00;2.53;;;;;;;;;;5050951;28;20032;-75
2022/05/20 14:35:30;;;;;;;6.97;2.85;;;;;;;;;;5062635;28;20028;-77
2022/05/20 14:37:58;;;;;;;6.07;3.08;;;;;;;;;;5051285;28;20033;-76
2022/05/20 14:40:27;;;;;;;8.88;2.70;;;;;;;;;;5074389;28;20059;-77
2022/05/20 14:42:54;;;;;;;5.50;2.95;;;;;;;;;;5049177;28;20048;-76
2022/05/20 14:45:37;;;;;;;5.25;3.00;;;;;;;;;;5052350;28;20482;-76
2022/05/20 14:48:10;;;;;;;4.35;2.45;;;;;;;;;;5057023;28;20047;-76
2022/05/20 14:50:35;;;;;;;4.70;2.88;;;;;;;;;;5040517;28;20024;-77
2022/05/20 14:53:16;;;;;;;5.20;3.03;;;;;;;;;;5066438;28;20480;-77
2022/05/20 14:55:48;;;;;;;3.72;2.38;;;;;;;;;;5083770;28;20028;-76
2022/05/20 14:58:25;;;;;;;6.65;3.75;;;;;;;;;;5074695;28;20029;-76
2022/05/20 15:00:54;;;;;;;9.50;2.80;;;;;;;;;;5067420;28;20190;-76
2022/05/20 15:03:21;;;;;;;5.35;2.65;;;;;;;;;;5071183;28;20089;-76
2022/05/20 15:05:50;;;;;;;5.93;2.60;;;;;;;;;;5049896;28;20028;-76
2022/05/20 15:08:19;;;;;;;7.38;2.67;;;;;;;;;;5074725;28;20024;-76
2022/05/20 15:10:55;;;;;;;5.43;2.97;;;;;;;;;;5051971;28;20035;-76
2022/05/20 15:13:21;;;;;;;5.63;3.13;;;;;;;;;;5062945;28;20055;-76
2022/05/20 15:15:46;;;;;;;4.10;2.47;;;;;;;;;;5071031;28;20105;-77
2022/05/20 15:18:12;;;;;;;5.10;2.63;;;;;;;;;;5073900;28;20412;-78
2022/05/20 15:20:40;;;;;;;5.05;2.40;;;;;;;;;;5086927;28;20063;-77
2022/05/20 15:23:05;;;;;;;;;;;;;;;;;;5061047;28;20534;-76
2022/05/20 15:25:31;;;;;;;4.57;2.97;;;;;;;;;;5061457;28;20006;-75
2022/05/20 15:27:57;;;;;;;4.90;2.60;;;;;;;;;;5067373;28;20540;-76
2022/05/20 15:30:23;;;;;;;5.68;2.80;;;;;;;;;;5074155;28;20395;-76
2022/05/20 15:35:32;;;;;;;3.80;2.70;;;;;;;;;;5082203;28;20031;-75
2022/05/20 15:37:59;;;;;;;4.57;2.40;;;;;;;;;;5091013;28;20024;-76